sensor_id;sensor_type;location;lat;lon;timestamp;pressure;altitude;pressure_sealevel;temperature;humidity
25722;BME280;13578;53.450;15.496;2023-02-10T00:02:23;101021.25;;;-1.36;100.00
25722;BME280;13578;53.450;15.496;2023-02-10T00:05:24;101016.84;;;-1.40;100.00
25722;BME280;13578;53.450;15.496;2023-02-10T00:08:25;101024.00;;;-1.39;100.00
25722;BME280;13578;53.450;15.496;2023-02-10T00:11:27;101027.63;;;-1.42;100.00
25722;BME280;13578;53.450;15.496;2023-02-10T00:14:46;101033.09;;;-1.45;100.00
25722;BME280;13578;53.450;15.496;2023-02-10T00:17:47;101031.34;;;-1.46;100.00
25722;BME280;13578;53.450;15.496;2023-02-10T00:20:47;101048.09;;;-1.32;100.00
25722;BME280;13578;53.450;15.496;2023-02-10T00:23:48;101039.38;;;-1.45;100.00
25722;BME280;13578;53.450;15.496;2023-02-10T00:26:49;101043.72;;;-1.37;100.00
25722;BME280;13578;53.450;15.496;2023-02-10T00:29:50;101052.66;;;-1.35;100.00
25722;BME280;13578;53.450;15.496;2023-02-10T00:32:51;101059.72;;;-1.30;100.00
25722;BME280;13578;53.450;15.496;2023-02-10T00:35:52;101067.00;;;-1.33;100.00
25722;BME280;13578;53.450;15.496;2023-02-10T00:38:52;101061.53;;;-1.30;100.00
25722;BME280;13578;53.450;15.496;2023-02-10T00:41:53;101049.81;;;-1.29;100.00
25722;BME280;13578;53.450;15.496;2023-02-10T00:44:54;101056.16;;;-1.32;100.00
25722;BME280;13578;53.450;15.496;2023-02-10T00:47:55;101068.91;;;-1.40;100.00
25722;BME280;13578;53.450;15.496;2023-02-10T00:50:55;101069.78;;;-1.39;100.00
25722;BME280;13578;53.450;15.496;2023-02-10T00:53:56;101077.16;;;-1.48;100.00
25722;BME280;13578;53.450;15.496;2023-02-10T00:56:57;101077.84;;;-1.39;100.00
25722;BME280;13578;53.450;15.496;2023-02-10T00:59:57;101084.25;;;-1.44;100.00
25722;BME280;13578;53.450;15.496;2023-02-10T01:02:58;101070.81;;;-1.45;100.00
25722;BME280;13578;53.450;15.496;2023-02-10T01:05:59;101064.16;;;-1.27;100.00
25722;BME280;13578;53.450;15.496;2023-02-10T01:09:00;101067.72;;;-1.25;100.00
25722;BME280;13578;53.450;15.496;2023-02-10T01:12:00;101065.91;;;-1.24;100.00
25722;BME280;13578;53.450;15.496;2023-02-10T01:15:01;101076.63;;;-1.23;100.00
25722;BME280;13578;53.450;15.496;2023-02-10T01:18:02;101066.66;;;-1.18;100.00
25722;BME280;13578;53.450;15.496;2023-02-10T01:21:11;101071.25;;;-1.21;100.00
25722;BME280;13578;53.450;15.496;2023-02-10T01:24:12;101075.66;;;-1.19;100.00
25722;BME280;13578;53.450;15.496;2023-02-10T01:27:12;101076.75;;;-1.29;100.00
25722;BME280;13578;53.450;15.496;2023-02-10T01:30:13;101077.50;;;-1.21;100.00
25722;BME280;13578;53.450;15.496;2023-02-10T01:33:13;101084.56;;;-1.15;100.00
25722;BME280;13578;53.450;15.496;2023-02-10T01:36:16;101079.16;;;-1.14;100.00
25722;BME280;13578;53.450;15.496;2023-02-10T01:39:17;101071.88;;;-1.10;100.00
25722;BME280;13578;53.450;15.496;2023-02-10T01:42:17;101058.63;;;-1.21;100.00
25722;BME280;13578;53.450;15.496;2023-02-10T01:45:32;101055.22;;;-1.29;100.00
25722;BME280;13578;53.450;15.496;2023-02-10T01:48:33;101053.44;;;-1.30;100.00
25722;BME280;13578;53.450;15.496;2023-02-10T01:51:42;101057.81;;;-1.24;100.00
25722;BME280;13578;53.450;15.496;2023-02-10T01:54:54;101053.25;;;-1.21;100.00
25722;BME280;13578;53.450;15.496;2023-02-10T01:57:56;101050.31;;;-1.10;100.00
25722;BME280;13578;53.450;15.496;2023-02-10T02:00:57;101042.09;;;-1.04;100.00
25722;BME280;13578;53.450;15.496;2023-02-10T02:03:58;101033.19;;;-1.07;100.00
25722;BME280;13578;53.450;15.496;2023-02-10T02:07:00;101041.19;;;-1.03;100.00
25722;BME280;13578;53.450;15.496;2023-02-10T02:10:03;101033.81;;;-0.94;100.00
25722;BME280;13578;53.450;15.496;2023-02-10T02:13:14;101035.50;;;-0.90;100.00
25722;BME280;13578;53.450;15.496;2023-02-10T02:32:49;101015.72;;;-0.89;100.00
25722;BME280;13578;53.450;15.496;2023-02-10T02:35:59;101019.28;;;-0.87;100.00
25722;BME280;13578;53.450;15.496;2023-02-10T02:39:03;101006.72;;;-0.88;100.00
25722;BME280;13578;53.450;15.496;2023-02-10T02:42:17;100992.38;;;-0.90;100.00
25722;BME280;13578;53.450;15.496;2023-02-10T02:45:33;101002.00;;;-0.78;100.00
25722;BME280;13578;53.450;15.496;2023-02-10T02:52:17;101006.34;;;-0.73;100.00
25722;BME280;13578;53.450;15.496;2023-02-10T03:02:15;101009.38;;;-0.87;100.00
25722;BME280;13578;53.450;15.496;2023-02-10T03:05:21;100999.50;;;-0.88;100.00
25722;BME280;13578;53.450;15.496;2023-02-10T03:08:23;100999.38;;;-0.82;100.00
25722;BME280;13578;53.450;15.496;2023-02-10T03:11:24;101001.44;;;-0.93;100.00
25722;BME280;13578;53.450;15.496;2023-02-10T03:14:25;100999.75;;;-0.99;100.00
25722;BME280;13578;53.450;15.496;2023-02-10T03:17:25;100997.38;;;-1.13;100.00
25722;BME280;13578;53.450;15.496;2023-02-10T03:20:26;101004.41;;;-1.05;100.00
25722;BME280;13578;53.450;15.496;2023-02-10T03:23:27;100993.91;;;-1.18;100.00
25722;BME280;13578;53.450;15.496;2023-02-10T03:26:30;101005.47;;;-1.13;100.00
25722;BME280;13578;53.450;15.496;2023-02-10T03:29:31;101012.88;;;-1.22;100.00
25722;BME280;13578;53.450;15.496;2023-02-10T03:32:32;100999.69;;;-1.36;100.00
25722;BME280;13578;53.450;15.496;2023-02-10T03:35:35;100994.16;;;-1.30;100.00
25722;BME280;13578;53.450;15.496;2023-02-10T03:38:36;101005.97;;;-1.36;100.00
25722;BME280;13578;53.450;15.496;2023-02-10T03:41:37;101005.03;;;-1.33;100.00
25722;BME280;13578;53.450;15.496;2023-02-10T03:44:37;101007.72;;;-1.33;100.00
25722;BME280;13578;53.450;15.496;2023-02-10T03:47:38;101005.84;;;-1.30;100.00
25722;BME280;13578;53.450;15.496;2023-02-10T03:50:39;101020.16;;;-1.28;100.00
25722;BME280;13578;53.450;15.496;2023-02-10T03:53:39;101012.13;;;-1.29;100.00
25722;BME280;13578;53.450;15.496;2023-02-10T03:56:40;101022.97;;;-1.32;100.00
25722;BME280;13578;53.450;15.496;2023-02-10T03:59:41;101029.28;;;-1.35;100.00
25722;BME280;13578;53.450;15.496;2023-02-10T04:02:42;101027.56;;;-1.37;100.00
25722;BME280;13578;53.450;15.496;2023-02-10T04:05:42;101033.06;;;-1.44;100.00
25722;BME280;13578;53.450;15.496;2023-02-10T04:08:43;101034.13;;;-1.51;100.00
25722;BME280;13578;53.450;15.496;2023-02-10T04:11:45;101043.09;;;-1.52;100.00
25722;BME280;13578;53.450;15.496;2023-02-10T04:14:46;101042.97;;;-1.46;100.00
25722;BME280;13578;53.450;15.496;2023-02-10T04:17:46;101035.06;;;-1.53;100.00
25722;BME280;13578;53.450;15.496;2023-02-10T04:20:50;101032.41;;;-1.55;100.00
25722;BME280;13578;53.450;15.496;2023-02-10T04:23:51;101053.56;;;-1.36;100.00
25722;BME280;13578;53.450;15.496;2023-02-10T04:26:52;101043.56;;;-1.30;100.00
25722;BME280;13578;53.450;15.496;2023-02-10T04:29:53;101045.13;;;-1.18;100.00
25722;BME280;13578;53.450;15.496;2023-02-10T04:32:53;101035.34;;;-1.23;100.00
25722;BME280;13578;53.450;15.496;2023-02-10T04:35:54;101035.41;;;-1.26;100.00
25722;BME280;13578;53.450;15.496;2023-02-10T04:38:55;101036.13;;;-1.18;100.00
25722;BME280;13578;53.450;15.496;2023-02-10T04:41:56;101033.38;;;-1.17;100.00
25722;BME280;13578;53.450;15.496;2023-02-10T04:44:59;101039.50;;;-1.07;100.00
25722;BME280;13578;53.450;15.496;2023-02-10T04:48:00;101033.97;;;-1.01;100.00
25722;BME280;13578;53.450;15.496;2023-02-10T04:51:11;101039.31;;;-0.99;100.00
25722;BME280;13578;53.450;15.496;2023-02-10T04:54:11;101044.44;;;-0.88;100.00
25722;BME280;13578;53.450;15.496;2023-02-10T04:57:12;101047.38;;;-0.99;100.00
25722;BME280;13578;53.450;15.496;2023-02-10T05:00:13;101043.69;;;-0.95;100.00
25722;BME280;13578;53.450;15.496;2023-02-10T05:03:14;101050.84;;;-0.94;100.00
25722;BME280;13578;53.450;15.496;2023-02-10T05:06:15;101053.41;;;-0.88;100.00
25722;BME280;13578;53.450;15.496;2023-02-10T05:09:16;101055.19;;;-0.87;100.00
25722;BME280;13578;53.450;15.496;2023-02-10T05:12:17;101075.94;;;-0.89;100.00
25722;BME280;13578;53.450;15.496;2023-02-10T05:15:18;101073.97;;;-0.82;100.00
25722;BME280;13578;53.450;15.496;2023-02-10T05:18:18;101087.34;;;-0.77;100.00
25722;BME280;13578;53.450;15.496;2023-02-10T05:21:19;101076.56;;;-0.77;100.00
25722;BME280;13578;53.450;15.496;2023-02-10T05:24:20;101071.97;;;-0.74;100.00
25722;BME280;13578;53.450;15.496;2023-02-10T05:27:20;101076.25;;;-0.65;100.00
25722;BME280;13578;53.450;15.496;2023-02-10T05:30:21;101077.13;;;-0.63;100.00
25722;BME280;13578;53.450;15.496;2023-02-10T05:33:21;101071.94;;;-0.71;100.00
25722;BME280;13578;53.450;15.496;2023-02-10T05:36:22;101079.78;;;-0.60;100.00
25722;BME280;13578;53.450;15.496;2023-02-10T05:39:23;101089.25;;;-0.43;100.00
25722;BME280;13578;53.450;15.496;2023-02-10T05:42:23;101085.88;;;-0.52;100.00
25722;BME280;13578;53.450;15.496;2023-02-10T05:45:24;101079.31;;;-0.41;100.00
25722;BME280;13578;53.450;15.496;2023-02-10T05:48:24;101069.34;;;-0.38;100.00
25722;BME280;13578;53.450;15.496;2023-02-10T05:51:25;101081.03;;;-0.37;100.00
25722;BME280;13578;53.450;15.496;2023-02-10T05:54:26;101084.59;;;-0.37;100.00
25722;BME280;13578;53.450;15.496;2023-02-10T05:57:26;101083.78;;;-0.40;100.00
25722;BME280;13578;53.450;15.496;2023-02-10T06:00:27;101070.34;;;-0.42;100.00
25722;BME280;13578;53.450;15.496;2023-02-10T06:03:28;101070.25;;;-0.39;100.00
25722;BME280;13578;53.450;15.496;2023-02-10T06:06:28;101068.41;;;-0.37;100.00
25722;BME280;13578;53.450;15.496;2023-02-10T06:09:30;101080.59;;;-0.20;100.00
25722;BME280;13578;53.450;15.496;2023-02-10T06:12:30;101081.59;;;-0.24;100.00
25722;BME280;13578;53.450;15.496;2023-02-10T06:15:31;101068.25;;;-0.30;100.00
25722;BME280;13578;53.450;15.496;2023-02-10T06:18:32;101072.78;;;-0.33;100.00
25722;BME280;13578;53.450;15.496;2023-02-10T06:21:33;101057.69;;;-0.40;100.00
25722;BME280;13578;53.450;15.496;2023-02-10T06:24:33;101077.31;;;-0.33;100.00
25722;BME280;13578;53.450;15.496;2023-02-10T06:27:34;101084.41;;;-0.29;100.00
25722;BME280;13578;53.450;15.496;2023-02-10T06:30:35;101086.97;;;-0.23;100.00
25722;BME280;13578;53.450;15.496;2023-02-10T06:33:35;101075.31;;;-0.25;100.00
25722;BME280;13578;53.450;15.496;2023-02-10T06:36:36;101084.13;;;-0.17;100.00
25722;BME280;13578;53.450;15.496;2023-02-10T06:39:37;101097.63;;;-0.18;100.00
25722;BME280;13578;53.450;15.496;2023-02-10T06:42:38;101104.00;;;-0.21;100.00
25722;BME280;13578;53.450;15.496;2023-02-10T06:45:38;101094.97;;;-0.20;100.00
25722;BME280;13578;53.450;15.496;2023-02-10T06:48:39;101101.94;;;-0.09;100.00
25722;BME280;13578;53.450;15.496;2023-02-10T06:51:39;101108.94;;;-0.02;100.00
25722;BME280;13578;53.450;15.496;2023-02-10T06:54:40;101124.34;;;-0.07;100.00
25722;BME280;13578;53.450;15.496;2023-02-10T06:57:41;101127.91;;;-0.05;100.00
25722;BME280;13578;53.450;15.496;2023-02-10T07:00:43;101121.03;;;-0.19;100.00
25722;BME280;13578;53.450;15.496;2023-02-10T07:03:43;101115.22;;;-0.02;100.00
25722;BME280;13578;53.450;15.496;2023-02-10T07:06:44;101105.50;;;-0.09;100.00
25722;BME280;13578;53.450;15.496;2023-02-10T07:09:45;101110.69;;;0.01;100.00
25722;BME280;13578;53.450;15.496;2023-02-10T07:12:45;101118.84;;;-0.03;100.00
25722;BME280;13578;53.450;15.496;2023-02-10T07:15:49;101119.84;;;-0.07;100.00
25722;BME280;13578;53.450;15.496;2023-02-10T07:18:49;101118.81;;;-0.01;100.00
25722;BME280;13578;53.450;15.496;2023-02-10T07:21:50;101122.22;;;0.07;100.00
25722;BME280;13578;53.450;15.496;2023-02-10T07:24:50;101137.50;;;0.07;100.00
25722;BME280;13578;53.450;15.496;2023-02-10T07:27:51;101136.47;;;0.12;100.00
25722;BME280;13578;53.450;15.496;2023-02-10T07:30:52;101125.91;;;0.03;100.00
25722;BME280;13578;53.450;15.496;2023-02-10T07:33:52;101131.84;;;0.18;100.00
25722;BME280;13578;53.450;15.496;2023-02-10T07:36:53;101119.44;;;0.10;100.00
25722;BME280;13578;53.450;15.496;2023-02-10T07:39:54;101126.88;;;0.01;100.00
25722;BME280;13578;53.450;15.496;2023-02-10T07:42:55;101129.41;;;0.07;100.00
25722;BME280;13578;53.450;15.496;2023-02-10T07:45:55;101134.59;;;0.16;100.00
25722;BME280;13578;53.450;15.496;2023-02-10T07:48:56;101132.59;;;0.24;100.00
25722;BME280;13578;53.450;15.496;2023-02-10T07:51:57;101146.19;;;0.20;100.00
25722;BME280;13578;53.450;15.496;2023-02-10T07:54:58;101138.22;;;0.15;100.00
25722;BME280;13578;53.450;15.496;2023-02-10T07:58:04;101153.28;;;0.24;100.00
25722;BME280;13578;53.450;15.496;2023-02-10T08:01:09;101160.47;;;0.25;100.00
25722;BME280;13578;53.450;15.496;2023-02-10T08:04:10;101163.25;;;0.22;100.00
25722;BME280;13578;53.450;15.496;2023-02-10T08:07:10;101153.25;;;0.25;100.00
25722;BME280;13578;53.450;15.496;2023-02-10T08:10:11;101171.91;;;0.36;100.00
25722;BME280;13578;53.450;15.496;2023-02-10T08:13:12;101172.56;;;0.44;100.00
25722;BME280;13578;53.450;15.496;2023-02-10T08:16:13;101169.09;;;0.39;100.00
25722;BME280;13578;53.450;15.496;2023-02-10T08:19:13;101156.41;;;0.43;100.00
25722;BME280;13578;53.450;15.496;2023-02-10T08:22:14;101169.03;;;0.41;100.00
25722;BME280;13578;53.450;15.496;2023-02-10T08:25:14;101172.31;;;0.54;100.00
25722;BME280;13578;53.450;15.496;2023-02-10T08:28:15;101189.28;;;0.59;100.00
25722;BME280;13578;53.450;15.496;2023-02-10T08:31:16;101191.19;;;0.55;100.00
25722;BME280;13578;53.450;15.496;2023-02-10T08:34:19;101194.69;;;0.59;100.00
25722;BME280;13578;53.450;15.496;2023-02-10T08:37:19;101191.97;;;0.60;100.00
25722;BME280;13578;53.450;15.496;2023-02-10T08:40:21;101192.97;;;0.56;100.00
25722;BME280;13578;53.450;15.496;2023-02-10T08:43:22;101201.75;;;0.65;100.00
25722;BME280;13578;53.450;15.496;2023-02-10T08:46:23;101189.16;;;0.63;100.00
25722;BME280;13578;53.450;15.496;2023-02-10T08:49:24;101185.13;;;0.80;100.00
25722;BME280;13578;53.450;15.496;2023-02-10T08:52:25;101182.34;;;0.83;100.00
25722;BME280;13578;53.450;15.496;2023-02-10T08:55:25;101180.53;;;0.84;100.00
25722;BME280;13578;53.450;15.496;2023-02-10T08:58:27;101199.16;;;0.94;100.00
25722;BME280;13578;53.450;15.496;2023-02-10T09:01:27;101185.88;;;0.87;100.00
25722;BME280;13578;53.450;15.496;2023-02-10T09:04:28;101203.72;;;0.92;100.00
25722;BME280;13578;53.450;15.496;2023-02-10T09:07:29;101203.50;;;1.00;100.00
25722;BME280;13578;53.450;15.496;2023-02-10T09:10:30;101195.56;;;0.94;100.00
25722;BME280;13578;53.450;15.496;2023-02-10T09:13:30;101199.09;;;0.96;100.00
25722;BME280;13578;53.450;15.496;2023-02-10T09:16:31;101216.91;;;1.05;100.00
25722;BME280;13578;53.450;15.496;2023-02-10T09:19:31;101209.91;;;0.96;100.00
25722;BME280;13578;53.450;15.496;2023-02-10T09:22:32;101215.19;;;1.01;100.00
25722;BME280;13578;53.450;15.496;2023-02-10T09:25:33;101217.03;;;1.00;100.00
25722;BME280;13578;53.450;15.496;2023-02-10T09:28:34;101228.41;;;1.11;100.00
25722;BME280;13578;53.450;15.496;2023-02-10T09:31:35;101237.97;;;1.25;100.00
25722;BME280;13578;53.450;15.496;2023-02-10T09:34:35;101233.66;;;1.18;100.00
25722;BME280;13578;53.450;15.496;2023-02-10T09:37:36;101228.91;;;1.26;100.00
25722;BME280;13578;53.450;15.496;2023-02-10T09:47:22;101234.88;;;1.39;100.00
25722;BME280;13578;53.450;15.496;2023-02-10T09:50:51;101244.59;;;1.46;100.00
25722;BME280;13578;53.450;15.496;2023-02-10T09:53:54;101238.56;;;1.36;100.00
25722;BME280;13578;53.450;15.496;2023-02-10T09:56:55;101245.75;;;1.37;100.00
25722;BME280;13578;53.450;15.496;2023-02-10T09:59:56;101243.59;;;1.49;100.00
25722;BME280;13578;53.450;15.496;2023-02-10T10:03:00;101249.00;;;1.49;100.00
25722;BME280;13578;53.450;15.496;2023-02-10T10:06:17;101244.63;;;1.45;100.00
25722;BME280;13578;53.450;15.496;2023-02-10T10:13:25;101258.53;;;1.62;100.00
25722;BME280;13578;53.450;15.496;2023-02-10T10:16:51;101254.97;;;1.62;100.00
25722;BME280;13578;53.450;15.496;2023-02-10T10:23:26;101264.63;;;1.70;100.00
25722;BME280;13578;53.450;15.496;2023-02-10T10:26:48;101261.84;;;1.73;100.00
25722;BME280;13578;53.450;15.496;2023-02-10T10:29:55;101266.13;;;1.81;100.00
25722;BME280;13578;53.450;15.496;2023-02-10T10:33:03;101273.06;;;1.89;100.00
25722;BME280;13578;53.450;15.496;2023-02-10T10:36:14;101264.09;;;1.87;100.00
25722;BME280;13578;53.450;15.496;2023-02-10T10:45:39;101272.53;;;2.06;100.00
25722;BME280;13578;53.450;15.496;2023-02-10T10:48:42;101253.22;;;2.19;100.00
25722;BME280;13578;53.450;15.496;2023-02-10T10:51:43;101258.22;;;2.31;100.00
25722;BME280;13578;53.450;15.496;2023-02-10T10:54:43;101274.41;;;2.34;100.00
25722;BME280;13578;53.450;15.496;2023-02-10T10:57:44;101270.06;;;2.29;100.00
25722;BME280;13578;53.450;15.496;2023-02-10T11:00:53;101268.22;;;2.29;100.00
25722;BME280;13578;53.450;15.496;2023-02-10T11:07:09;101275.34;;;2.33;100.00
25722;BME280;13578;53.450;15.496;2023-02-10T11:10:28;101265.72;;;2.23;100.00
25722;BME280;13578;53.450;15.496;2023-02-10T11:13:32;101272.81;;;2.27;100.00
25722;BME280;13578;53.450;15.496;2023-02-10T11:16:40;101265.84;;;2.20;100.00
25722;BME280;13578;53.450;15.496;2023-02-10T11:19:53;101260.28;;;2.23;100.00
25722;BME280;13578;53.450;15.496;2023-02-10T11:26:01;101260.00;;;2.32;100.00
25722;BME280;13578;53.450;15.496;2023-02-10T11:29:09;101264.69;;;2.27;100.00
25722;BME280;13578;53.450;15.496;2023-02-10T11:32:22;101247.69;;;2.22;100.00
25722;BME280;13578;53.450;15.496;2023-02-10T11:35:24;101262.88;;;2.28;100.00
25722;BME280;13578;53.450;15.496;2023-02-10T11:38:25;101260.94;;;2.31;100.00
25722;BME280;13578;53.450;15.496;2023-02-10T11:41:31;101259.72;;;2.42;100.00
25722;BME280;13578;53.450;15.496;2023-02-10T11:44:33;101246.09;;;2.43;100.00
25722;BME280;13578;53.450;15.496;2023-02-10T11:47:33;101259.59;;;2.45;100.00
25722;BME280;13578;53.450;15.496;2023-02-10T11:50:35;101239.59;;;2.49;100.00
25722;BME280;13578;53.450;15.496;2023-02-10T11:53:37;101242.09;;;2.55;100.00
25722;BME280;13578;53.450;15.496;2023-02-10T12:03:38;101248.66;;;2.48;100.00
25722;BME280;13578;53.450;15.496;2023-02-10T12:06:47;101250.81;;;2.36;100.00
25722;BME280;13578;53.450;15.496;2023-02-10T12:09:55;101249.09;;;2.34;100.00
25722;BME280;13578;53.450;15.496;2023-02-10T12:13:26;101248.13;;;2.36;100.00
25722;BME280;13578;53.450;15.496;2023-02-10T12:20:06;101237.06;;;2.43;100.00
25722;BME280;13578;53.450;15.496;2023-02-10T12:26:45;101230.09;;;2.35;100.00
25722;BME280;13578;53.450;15.496;2023-02-10T12:39:51;101247.91;;;2.43;100.00
25722;BME280;13578;53.450;15.496;2023-02-10T12:46:27;101242.53;;;2.41;100.00
25722;BME280;13578;53.450;15.496;2023-02-10T12:53:28;101219.88;;;2.44;100.00
25722;BME280;13578;53.450;15.496;2023-02-10T12:56:35;101227.63;;;2.56;100.00
25722;BME280;13578;53.450;15.496;2023-02-10T12:59:56;101224.13;;;2.52;100.00
25722;BME280;13578;53.450;15.496;2023-02-10T13:03:09;101230.13;;;2.62;100.00
25722;BME280;13578;53.450;15.496;2023-02-10T13:06:36;101234.69;;;2.60;100.00
25722;BME280;13578;53.450;15.496;2023-02-10T13:12:48;101237.19;;;2.66;100.00
25722;BME280;13578;53.450;15.496;2023-02-10T13:15:56;101225.56;;;2.63;100.00
25722;BME280;13578;53.450;15.496;2023-02-10T13:22:18;101216.50;;;2.64;100.00
25722;BME280;13578;53.450;15.496;2023-02-10T13:25:55;101220.25;;;2.60;100.00
25722;BME280;13578;53.450;15.496;2023-02-10T13:29:38;101212.84;;;2.65;100.00
25722;BME280;13578;53.450;15.496;2023-02-10T13:36:33;101215.50;;;2.66;100.00
25722;BME280;13578;53.450;15.496;2023-02-10T13:39:35;101219.13;;;2.67;100.00
25722;BME280;13578;53.450;15.496;2023-02-10T13:42:45;101217.41;;;2.64;100.00
25722;BME280;13578;53.450;15.496;2023-02-10T13:45:50;101202.09;;;2.62;100.00
25722;BME280;13578;53.450;15.496;2023-02-10T13:48:53;101212.25;;;2.82;100.00
25722;BME280;13578;53.450;15.496;2023-02-10T13:52:12;101231.38;;;2.79;100.00
25722;BME280;13578;53.450;15.496;2023-02-10T13:58:24;101235.94;;;2.77;100.00
25722;BME280;13578;53.450;15.496;2023-02-10T14:01:36;101238.59;;;2.78;100.00
25722;BME280;13578;53.450;15.496;2023-02-10T14:04:41;101228.03;;;2.70;100.00
25722;BME280;13578;53.450;15.496;2023-02-10T14:07:41;101220.81;;;2.69;100.00
25722;BME280;13578;53.450;15.496;2023-02-10T14:10:43;101214.50;;;2.69;100.00
25722;BME280;13578;53.450;15.496;2023-02-10T14:14:36;101225.72;;;2.85;100.00
25722;BME280;13578;53.450;15.496;2023-02-10T14:17:37;101209.03;;;2.70;100.00
25722;BME280;13578;53.450;15.496;2023-02-10T14:20:43;101222.59;;;2.70;100.00
25722;BME280;13578;53.450;15.496;2023-02-10T14:23:55;101216.25;;;2.72;100.00
25722;BME280;13578;53.450;15.496;2023-02-10T14:27:01;101209.28;;;2.63;100.00
25722;BME280;13578;53.450;15.496;2023-02-10T14:30:15;101210.19;;;2.63;100.00
25722;BME280;13578;53.450;15.496;2023-02-10T14:33:27;101214.56;;;2.67;100.00
25722;BME280;13578;53.450;15.496;2023-02-10T14:36:28;101216.06;;;2.76;100.00
25722;BME280;13578;53.450;15.496;2023-02-10T14:39:30;101215.75;;;2.85;100.00
25722;BME280;13578;53.450;15.496;2023-02-10T14:42:31;101220.59;;;2.76;100.00
25722;BME280;13578;53.450;15.496;2023-02-10T14:45:33;101226.19;;;2.71;100.00
25722;BME280;13578;53.450;15.496;2023-02-10T14:48:39;101230.59;;;2.75;100.00
25722;BME280;13578;53.450;15.496;2023-02-10T14:51:42;101214.47;;;2.70;100.00
25722;BME280;13578;53.450;15.496;2023-02-10T14:54:43;101215.41;;;2.69;100.00
25722;BME280;13578;53.450;15.496;2023-02-10T14:57:44;101217.84;;;2.77;100.00
25722;BME280;13578;53.450;15.496;2023-02-10T15:04:18;101203.72;;;2.67;100.00
25722;BME280;13578;53.450;15.496;2023-02-10T15:07:29;101196.75;;;2.60;100.00
25722;BME280;13578;53.450;15.496;2023-02-10T15:10:37;101193.00;;;2.64;100.00
25722;BME280;13578;53.450;15.496;2023-02-10T15:13:45;101212.00;;;2.63;100.00
25722;BME280;13578;53.450;15.496;2023-02-10T15:16:48;101205.88;;;2.58;100.00
25722;BME280;13578;53.450;15.496;2023-02-10T15:20:27;101221.13;;;2.60;100.00
25722;BME280;13578;53.450;15.496;2023-02-10T15:23:28;101206.03;;;2.53;100.00
25722;BME280;13578;53.450;15.496;2023-02-10T15:26:30;101217.59;;;2.58;100.00
25722;BME280;13578;53.450;15.496;2023-02-10T15:29:35;101212.13;;;2.60;100.00
25722;BME280;13578;53.450;15.496;2023-02-10T15:32:37;101208.63;;;2.56;100.00
25722;BME280;13578;53.450;15.496;2023-02-10T15:35:38;101212.06;;;2.61;100.00
25722;BME280;13578;53.450;15.496;2023-02-10T15:42:27;101207.75;;;2.56;100.00
25722;BME280;13578;53.450;15.496;2023-02-10T15:45:26;101198.88;;;2.50;100.00
25722;BME280;13578;53.450;15.496;2023-02-10T15:48:27;101200.59;;;2.53;100.00
25722;BME280;13578;53.450;15.496;2023-02-10T15:51:27;101213.44;;;2.48;100.00
25722;BME280;13578;53.450;15.496;2023-02-10T15:54:28;101209.66;;;2.52;100.00
25722;BME280;13578;53.450;15.496;2023-02-10T15:57:29;101207.09;;;2.49;100.00
25722;BME280;13578;53.450;15.496;2023-02-10T16:00:35;101200.09;;;2.42;100.00
25722;BME280;13578;53.450;15.496;2023-02-10T16:03:35;101214.31;;;2.48;100.00
25722;BME280;13578;53.450;15.496;2023-02-10T16:06:37;101206.13;;;2.50;100.00
25722;BME280;13578;53.450;15.496;2023-02-10T16:09:38;101216.16;;;2.46;100.00
25722;BME280;13578;53.450;15.496;2023-02-10T16:12:39;101220.03;;;2.39;100.00
25722;BME280;13578;53.450;15.496;2023-02-10T16:15:40;101216.34;;;2.42;100.00
25722;BME280;13578;53.450;15.496;2023-02-10T16:18:42;101219.84;;;2.45;100.00
25722;BME280;13578;53.450;15.496;2023-02-10T16:21:43;101223.63;;;2.40;100.00
25722;BME280;13578;53.450;15.496;2023-02-10T16:24:44;101226.19;;;2.44;100.00
25722;BME280;13578;53.450;15.496;2023-02-10T16:27:44;101212.66;;;2.44;100.00
25722;BME280;13578;53.450;15.496;2023-02-10T16:30:48;101236.13;;;2.44;100.00
25722;BME280;13578;53.450;15.496;2023-02-10T16:33:50;101238.84;;;2.44;100.00
25722;BME280;13578;53.450;15.496;2023-02-10T16:36:50;101231.66;;;2.43;100.00
25722;BME280;13578;53.450;15.496;2023-02-10T16:39:51;101218.94;;;2.45;100.00
25722;BME280;13578;53.450;15.496;2023-02-10T16:42:52;101205.66;;;2.37;100.00
25722;BME280;13578;53.450;15.496;2023-02-10T16:45:53;101212.28;;;2.55;100.00
25722;BME280;13578;53.450;15.496;2023-02-10T16:48:54;101216.94;;;2.50;100.00
25722;BME280;13578;53.450;15.496;2023-02-10T16:51:55;101203.38;;;2.51;100.00
25722;BME280;13578;53.450;15.496;2023-02-10T16:54:55;101191.69;;;2.49;100.00
25722;BME280;13578;53.450;15.496;2023-02-10T16:57:56;101206.66;;;2.61;100.00
25722;BME280;13578;53.450;15.496;2023-02-10T17:00:58;101207.78;;;2.54;100.00
25722;BME280;13578;53.450;15.496;2023-02-10T17:03:59;101222.28;;;2.53;100.00
25722;BME280;13578;53.450;15.496;2023-02-10T17:07:01;101214.94;;;2.57;100.00
25722;BME280;13578;53.450;15.496;2023-02-10T17:10:03;101198.09;;;2.47;100.00
25722;BME280;13578;53.450;15.496;2023-02-10T17:13:05;101189.81;;;2.51;100.00
25722;BME280;13578;53.450;15.496;2023-02-10T17:16:06;101196.03;;;2.55;100.00
25722;BME280;13578;53.450;15.496;2023-02-10T17:19:11;101202.44;;;2.52;100.00
25722;BME280;13578;53.450;15.496;2023-02-10T17:22:11;101183.50;;;2.51;100.00
25722;BME280;13578;53.450;15.496;2023-02-10T17:25:12;101181.31;;;2.62;100.00
25722;BME280;13578;53.450;15.496;2023-02-10T17:28:14;101173.19;;;2.62;100.00